This is the latest recevied weather packets stored in our database for station/object SR8NGO-1. If no packets are shown the sender has not sent any weather packets the latest 1 day(s).
| Time | Temp. | Humidity | Pressure | Rain* | Wind** | Luminosity | Snow |
|---|---|---|---|---|---|---|---|
| 1777978847 | 30° C | 39% | 999.9 hPa | 137.92 mm | 2.68 m/s, 183° | - | - |
| 1777978607 | 27.78° C | 39% | 1000 hPa | 137.92 mm | 4.02 m/s, 71° | - | - |
| 1777978367 | 28.89° C | 39% | 1000 hPa | 137.92 mm | 4.02 m/s, 179° | - | - |
| 1777978127 | 30° C | 39% | 1000.1 hPa | 137.92 mm | 2.68 m/s, 184° | - | - |
| 1777977887 | 28.89° C | 39% | 1000.1 hPa | 137.92 mm | 3.58 m/s, 179° | - | - |
| 1777977647 | 30° C | 40% | 1000.2 hPa | 137.92 mm | 3.58 m/s, 177° | - | - |
| 1777977407 | 30° C | 40% | 1000.1 hPa | 137.92 mm | 2.68 m/s, 145° | - | - |
| 1777976927 | 28.89° C | 40% | 1000.3 hPa | 137.92 mm | 7.6 m/s, 173° | - | - |
| 1777976687 | 28.89° C | 40% | 1000.3 hPa | 137.92 mm | 3.58 m/s, 144° | - | - |
| 1777976447 | 28.89° C | 40% | 1000.3 hPa | 137.92 mm | 5.36 m/s, 89° | - | - |
| 1777976207 | 30° C | 40% | 1000.4 hPa | 137.92 mm | 2.68 m/s, 168° | - | - |
| 1777975967 | 27.78° C | 40% | 1000.5 hPa | 137.92 mm | 5.81 m/s, 127° | - | - |
| 1777975727 | 30° C | 39% | 1000.5 hPa | 137.92 mm | 4.92 m/s, 151° | - | - |
| 1777975487 | 27.78° C | 39% | 1000.5 hPa | 137.92 mm | 4.92 m/s, 144° | - | - |
| 1777975247 | 27.22° C | 39% | 1000.6 hPa | 137.92 mm | 4.92 m/s, 134° | - | - |
| 1777975007 | 27.22° C | 39% | 1000.7 hPa | 137.92 mm | 5.81 m/s, 190° | - | - |
| 1777974767 | 27.78° C | 39% | 1000.7 hPa | 137.92 mm | 6.26 m/s, 183° | - | - |
| 1777974527 | 28.89° C | 39% | 1000.7 hPa | 137.92 mm | 3.13 m/s, 155° | - | - |
| 1777974287 | 28.89° C | 38% | 1000.7 hPa | 137.92 mm | 2.68 m/s, 172° | - | - |
| 1777974047 | 28.89° C | 39% | 1000.7 hPa | 137.92 mm | 6.26 m/s, 183° | - | - |
| 1777973807 | 28.89° C | 39% | 1000.7 hPa | 137.92 mm | 3.58 m/s, 168° | - | - |
| 1777973567 | 28.89° C | 38% | 1000.8 hPa | 137.92 mm | 1.79 m/s, 161° | - | - |
| 1777973327 | 30° C | 38% | 1000.8 hPa | 137.92 mm | 5.81 m/s, 217° | - | - |
| 1777972847 | 30° C | 37% | 1000.9 hPa | 137.92 mm | 2.24 m/s, 151° | - | - |
| 1777972607 | 30° C | 37% | 1000.9 hPa | 137.92 mm | 5.81 m/s, 179° | - | - |
* Rain latest hour (hover to see other rain measurements)
** Current wind speed in m/s (hover to see current wind gust speed)